Terminal Aerodrome Forecast
Issued by NWS

Home | Current Version | Previous Version | Text Only | Print | Product List | Glossary On
Versions: 1 2 3 4 5 6 7 8 9 10 11 12 13 14
000
FTUS44 KCRP 170527
TAFALI
TAF
KALI 170527Z 1706/1806 34006KT P6SM OVC012
     FM170700 34004KT 4SM BR OVC005
     FM170900 34004KT 1SM BR OVC003
     FM171530 02004KT 4SM BR OVC008
     FM171800 12006KT P6SM OVC015
     FM180200 12004KT 4SM BR OVC008=

USA.gov is the U.S. government's official web portal to all federal, state and local government web resources and services.